Time;durP1;ratioP1;P1;durP2;ratioP2;P2;SDS_P1;SDS_P2;PMS_P1;PMS_P2;Temp;Humidity;BMP_temperature;BMP_pressure;BME280_temperature;BME280_humidity;BME280_pressure;Samples;Min_cycle;Max_cycle;Signal;HPM_P1;HPM_P2
2021/12/27 00:01:41;;;;;;;;;;;7.90;99.90;;;;;;5082721;28;20007;-70
2021/12/27 00:04:06;;;;;;;;;;;7.90;99.90;;;;;;5091506;28;19914;-70
2021/12/27 00:06:32;;;;;;;;;;;7.90;99.90;;;;;;5087969;28;19917;-70
2021/12/27 00:08:57;;;;;;;;;;;7.90;99.90;;;;;;5084322;28;19915;-69
2021/12/27 00:11:23;;;;;;;;;;;8.00;99.90;;;;;;5096438;28;20451;-69
2021/12/27 00:13:49;;;;;;;;;;;7.90;99.90;;;;;;5096785;28;19930;-70
2021/12/27 00:16:14;;;;;;;;;;;7.90;99.90;;;;;;5101213;28;19915;-69
2021/12/27 00:18:40;;;;;;;;;;;7.90;99.90;;;;;;5104348;28;19978;-70
2021/12/27 00:21:06;;;;;;;;;;;7.90;99.90;;;;;;5110799;28;19907;-70
2021/12/27 00:23:31;;;;;;;;;;;7.90;99.90;;;;;;5107151;28;20331;-69
2021/12/27 00:25:57;;;;;;;;;;;7.90;99.90;;;;;;5100463;28;19911;-68
2021/12/27 00:28:22;;;;;;;;;;;7.80;99.90;;;;;;5103163;28;19916;-69
2021/12/27 00:30:48;;;;;;;;;;;7.80;99.90;;;;;;5101371;28;20011;-69
2021/12/27 00:33:14;;;;;;;;;;;7.80;99.90;;;;;;5105342;28;19908;-70
2021/12/27 00:35:40;;;;;;;;;;;7.80;99.90;;;;;;5092272;28;19908;-69
2021/12/27 00:38:06;;;;;;;;;;;7.80;99.90;;;;;;5101997;28;19907;-70
2021/12/27 00:40:32;;;;;;;;;;;7.80;99.90;;;;;;5099838;28;20281;-69
2021/12/27 00:42:57;;;;;;;;;;;7.70;99.90;;;;;;5100539;28;20050;-69
2021/12/27 00:45:23;;;;;;;;;;;7.70;99.90;;;;;;5103963;28;19928;-70
2021/12/27 00:47:48;;;;;;;;;;;7.80;99.90;;;;;;5097109;28;19907;-70
2021/12/27 00:50:14;;;;;;;;;;;7.80;99.90;;;;;;5105496;28;19990;-69
2021/12/27 00:52:40;;;;;;;;;;;7.80;99.90;;;;;;5095418;28;19943;-70
2021/12/27 00:55:07;;;;;;;;;;;7.80;99.90;;;;;;5097762;28;19914;-70
2021/12/27 00:57:32;;;;;;;;;;;7.70;99.90;;;;;;5099665;28;19915;-71
2021/12/27 00:59:58;;;;;;;;;;;7.80;99.90;;;;;;5110494;28;19912;-70
2021/12/27 01:02:24;;;;;;;;;;;7.80;99.90;;;;;;5102721;28;19914;-71
2021/12/27 01:04:50;;;;;;;;;;;7.70;99.90;;;;;;5098220;28;20192;-70
2021/12/27 01:07:15;;;;;;;;;;;7.70;99.90;;;;;;5088234;28;20444;-71
2021/12/27 01:15:09;;;;;;;;;;;7.60;99.90;;;;;;5106050;28;20271;-69
2021/12/27 01:17:36;;;;;;;;;;;7.70;99.90;;;;;;5102372;28;19932;-69
2021/12/27 01:20:03;;;;;;;;;;;7.70;99.90;;;;;;5106397;28;19999;-70
2021/12/27 01:22:29;;;;;;;;;;;7.70;99.90;;;;;;5091504;28;20245;-70
2021/12/27 01:24:54;;;;;;;;;;;7.70;99.90;;;;;;5103351;28;19954;-70
2021/12/27 01:27:20;;;;;;;;;;;7.70;99.90;;;;;;5088152;28;19919;-69
2021/12/27 01:29:45;;;;;;;;;;;7.70;99.90;;;;;;5094852;28;20418;-70
2021/12/27 01:32:11;;;;;;;;;;;7.70;99.90;;;;;;5098537;28;19915;-71
2021/12/27 01:34:36;;;;;;;;;;;7.70;99.90;;;;;;5097106;28;19904;-71
2021/12/27 01:37:02;;;;;;;;;;;7.80;99.90;;;;;;5089247;28;20328;-70
2021/12/27 01:39:27;;;;;;;;;;;7.80;99.90;;;;;;5079291;28;19908;-70
2021/12/27 01:41:54;;;;;;;;;;;7.70;99.90;;;;;;5091786;28;20014;-69
2021/12/27 01:44:19;;;;;;;;;;;7.60;99.90;;;;;;5096155;28;19919;-69
2021/12/27 01:46:45;;;;;;;;;;;7.60;99.90;;;;;;5100157;28;19908;-69
2021/12/27 01:49:11;;;;;;;;;;;7.60;99.90;;;;;;5099308;28;19945;-69
2021/12/27 01:51:39;;;;;;;;;;;7.60;99.90;;;;;;5098530;28;20304;-70
2021/12/27 01:54:05;;;;;;;;;;;7.60;99.90;;;;;;5099010;28;20418;-69
2021/12/27 01:56:31;;;;;;;;;;;7.60;99.90;;;;;;5099371;28;20006;-70
2021/12/27 01:58:57;;;;;;;;;;;7.60;99.90;;;;;;5099644;28;19908;-70
2021/12/27 02:01:23;;;;;;;;;;;7.60;99.90;;;;;;5099266;28;19920;-71
2021/12/27 02:03:50;;;;;;;;;;;7.60;99.90;;;;;;5099947;28;19912;-70
2021/12/27 02:06:15;;;;;;;;;;;7.50;99.90;;;;;;5096042;28;20341;-70
2021/12/27 02:08:42;;;;;;;;;;;7.60;99.90;;;;;;5089511;28;19908;-70
2021/12/27 02:11:09;;;;;;;;;;;7.60;99.90;;;;;;5097818;28;19923;-69
2021/12/27 02:13:41;;;;;;;;;;;7.60;99.90;;;;;;5082112;28;19908;-70
2021/12/27 02:16:07;;;;;;;;;;;7.60;99.90;;;;;;5096546;28;19912;-70
2021/12/27 02:18:32;;;;;;;;;;;7.60;99.90;;;;;;5092367;28;20388;-70
2021/12/27 02:20:58;;;;;;;;;;;7.60;99.90;;;;;;5098018;28;19915;-70
2021/12/27 02:23:24;;;;;;;;;;;7.60;99.90;;;;;;5102793;28;20539;-71
2021/12/27 02:25:50;;;;;;;;;;;7.60;99.90;;;;;;5086659;28;20393;-70
2021/12/27 02:28:16;;;;;;;;;;;7.60;99.90;;;;;;5089434;28;20368;-70
2021/12/27 02:30:43;;;;;;;;;;;7.60;99.90;;;;;;5101387;28;19939;-69
2021/12/27 02:33:09;;;;;;;;;;;7.60;99.90;;;;;;5103274;28;20518;-70
2021/12/27 02:35:39;;;;;;;;;;;7.60;99.90;;;;;;5100239;28;20327;-69
2021/12/27 02:38:06;;;;;;;;;;;7.60;99.90;;;;;;5086269;28;19964;-70
2021/12/27 02:40:32;;;;;;;;;;;7.60;99.90;;;;;;5100101;28;19914;-70
2021/12/27 02:43:08;;;;;;;;;;;7.60;99.90;;;;;;5092042;28;19961;-69
2021/12/27 02:45:38;;;;;;;;;;;7.60;99.90;;;;;;5097954;28;19912;-69
2021/12/27 02:48:04;;;;;;;;;;;7.60;99.90;;;;;;5090714;28;20015;-68
2021/12/27 02:50:30;;;;;;;;;;;7.60;99.90;;;;;;5101092;28;19916;-69
2021/12/27 02:52:55;;;;;;;;;;;7.50;99.90;;;;;;5096868;28;19942;-69
2021/12/27 02:55:21;;;;;;;;;;;7.50;99.90;;;;;;5088920;28;19916;-69
2021/12/27 02:57:48;;;;;;;;;;;7.50;99.90;;;;;;5091261;28;20289;-68
2021/12/27 03:00:15;;;;;;;;;;;7.50;99.90;;;;;;5102943;28;19912;-70
2021/12/27 03:02:42;;;;;;;;;;;7.50;99.90;;;;;;5099276;28;20042;-70
2021/12/27 03:05:07;;;;;;;;;;;7.60;99.90;;;;;;5101096;28;20115;-69
2021/12/27 03:07:33;;;;;;;;;;;7.50;99.90;;;;;;5091706;28;20458;-69
2021/12/27 03:09:59;;;;;;;;;;;7.50;99.90;;;;;;5096008;28;20434;-69
2021/12/27 03:12:24;;;;;;;;;;;7.50;99.90;;;;;;5101336;28;20316;-71
2021/12/27 03:14:50;;;;;;;;;;;7.50;99.90;;;;;;5093048;28;19938;-71
2021/12/27 03:17:15;;;;;;;;;;;7.50;99.90;;;;;;5085771;28;19917;-69
2021/12/27 03:19:41;;;;;;;;;;;7.50;99.90;;;;;;5093919;28;19908;-69
2021/12/27 03:22:06;;;;;;;;;;;7.50;99.90;;;;;;5097446;28;19923;-69
2021/12/27 03:24:32;;;;;;;;;;;7.60;99.90;;;;;;5096688;28;20014;-69
2021/12/27 03:26:58;;;;;;;;;;;7.60;99.90;;;;;;5097083;28;20131;-70
2021/12/27 03:29:23;;;;;;;;;;;7.50;99.90;;;;;;5097947;28;19908;-69
2021/12/27 03:31:54;;;;;;;;;;;7.50;99.90;;;;;;5093769;28;19920;-70
2021/12/27 03:34:19;;;;;;;;;;;7.50;99.90;;;;;;5095283;28;20381;-69
2021/12/27 03:36:45;;;;;;;;;;;7.50;99.90;;;;;;5096335;28;19951;-71
2021/12/27 03:39:10;;;;;;;;;;;7.50;99.90;;;;;;5093639;28;19915;-70
2021/12/27 03:41:36;;;;;;;;;;;7.60;99.90;;;;;;5090011;28;21276;-70
2021/12/27 03:44:02;;;;;;;;;;;7.60;99.90;;;;;;5096925;28;19908;-70
2021/12/27 03:46:28;;;;;;;;;;;7.60;99.90;;;;;;5095897;28;19908;-70
2021/12/27 03:48:53;;;;;;;;;;;7.60;99.90;;;;;;5092807;28;19999;-69
2021/12/27 03:51:19;;;;;;;;;;;7.50;99.90;;;;;;5092198;28;19913;-69
2021/12/27 03:53:45;;;;;;;;;;;7.50;99.90;;;;;;5088923;28;20419;-69
2021/12/27 03:56:10;;;;;;;;;;;7.50;99.90;;;;;;5100668;28;20378;-70
2021/12/27 03:58:54;;;;;;;;;;;7.50;99.90;;;;;;5090117;28;20409;-70
2021/12/27 04:01:21;;;;;;;;;;;7.60;99.90;;;;;;5097655;28;19920;-69
2021/12/27 04:03:55;;;;;;;;;;;7.60;99.90;;;;;;5097038;28;19915;-70
2021/12/27 04:06:22;;;;;;;;;;;7.60;99.90;;;;;;5096831;28;20014;-69
2021/12/27 04:08:50;;;;;;;;;;;7.60;99.90;;;;;;5095257;28;19908;-70
2021/12/27 04:11:16;;;;;;;;;;;7.70;99.90;;;;;;5099258;28;20233;-70
2021/12/27 04:13:41;;;;;;;;;;;7.70;99.90;;;;;;5094937;28;19915;-70
2021/12/27 04:16:07;;;;;;;;;;;7.70;99.90;;;;;;5091440;28;20007;-69
2021/12/27 04:18:33;;;;;;;;;;;7.70;99.90;;;;;;5093871;28;19912;-70
2021/12/27 04:20:58;;;;;;;;;;;7.70;99.90;;;;;;5099681;28;19979;-69
2021/12/27 04:23:24;;;;;;;;;;;7.60;99.90;;;;;;5109135;28;19908;-70
2021/12/27 04:25:49;;;;;;;;;;;7.60;99.90;;;;;;5109132;28;19908;-70
2021/12/27 04:28:16;;;;;;;;;;;7.60;99.90;;;;;;5095695;28;20258;-70
2021/12/27 04:30:42;;;;;;;;;;;7.50;99.90;;;;;;5102856;28;20284;-70
2021/12/27 04:33:08;;;;;;;;;;;7.50;99.90;;;;;;5094916;28;20506;-70
2021/12/27 04:35:34;;;;;;;;;;;7.50;99.90;;;;;;5102499;28;19908;-69
2021/12/27 04:38:00;;;;;;;;;;;7.50;99.90;;;;;;5095062;28;19907;-69
2021/12/27 04:40:27;;;;;;;;;;;7.50;99.90;;;;;;5097525;28;19914;-70
2021/12/27 04:42:54;;;;;;;;;;;7.50;99.90;;;;;;5101336;28;19958;-69
2021/12/27 04:45:20;;;;;;;;;;;7.50;99.90;;;;;;5095365;28;20337;-69
2021/12/27 04:47:46;;;;;;;;;;;7.40;99.90;;;;;;5094122;28;19908;-69
2021/12/27 04:50:11;;;;;;;;;;;7.40;99.90;;;;;;5096408;28;20362;-69
2021/12/27 04:52:37;;;;;;;;;;;7.50;99.90;;;;;;5098130;28;19919;-69
2021/12/27 04:55:03;;;;;;;;;;;7.50;99.90;;;;;;5093056;28;19949;-70
2021/12/27 04:57:28;;;;;;;;;;;7.50;99.90;;;;;;5091342;28;19915;-71
2021/12/27 04:59:54;;;;;;;;;;;7.50;99.90;;;;;;5097475;28;19911;-70
2021/12/27 05:02:20;;;;;;;;;;;7.60;99.90;;;;;;5092183;28;19916;-70
2021/12/27 05:04:45;;;;;;;;;;;7.50;99.90;;;;;;5090726;28;20331;-70
2021/12/27 05:07:11;;;;;;;;;;;7.60;99.90;;;;;;5097303;28;19955;-69
2021/12/27 05:09:36;;;;;;;;;;;7.60;99.90;;;;;;5096264;28;19919;-69
2021/12/27 05:12:02;;;;;;;;;;;7.50;99.90;;;;;;5087691;28;20036;-69
2021/12/27 05:14:27;;;;;;;;;;;7.50;99.90;;;;;;5099060;28;19904;-68
2021/12/27 05:16:53;;;;;;;;;;;7.60;99.90;;;;;;5099964;28;20100;-70
2021/12/27 05:19:19;;;;;;;;;;;7.50;99.90;;;;;;5100803;28;19918;-70
2021/12/27 05:21:44;;;;;;;;;;;7.50;99.90;;;;;;5082250;28;19908;-70
2021/12/27 05:24:11;;;;;;;;;;;7.50;99.90;;;;;;5077863;28;19955;-69
2021/12/27 05:26:36;;;;;;;;;;;7.50;99.90;;;;;;5100950;28;19922;-70
2021/12/27 05:29:02;;;;;;;;;;;7.50;99.90;;;;;;5093868;28;19911;-69
2021/12/27 05:31:27;;;;;;;;;;;7.50;99.90;;;;;;5104196;28;20015;-70
2021/12/27 05:33:53;;;;;;;;;;;7.50;99.90;;;;;;5091911;28;19907;-69
2021/12/27 05:36:18;;;;;;;;;;;7.50;99.90;;;;;;5092912;28;19954;-69
2021/12/27 05:38:44;;;;;;;;;;;7.50;99.90;;;;;;5094730;28;20357;-70
2021/12/27 05:41:10;;;;;;;;;;;7.50;99.90;;;;;;5091938;28;19915;-70
2021/12/27 05:43:35;;;;;;;;;;;7.50;99.90;;;;;;5092218;28;19915;-71
2021/12/27 05:46:02;;;;;;;;;;;7.50;99.90;;;;;;5096293;28;19904;-71
2021/12/27 05:48:27;;;;;;;;;;;7.50;99.90;;;;;;5095788;28;20038;-71
2021/12/27 05:50:53;;;;;;;;;;;7.50;99.90;;;;;;5102255;28;20388;-69
2021/12/27 05:53:20;;;;;;;;;;;7.50;99.90;;;;;;5099844;28;19934;-69
2021/12/27 05:55:45;;;;;;;;;;;7.50;99.90;;;;;;5106298;28;20378;-71
2021/12/27 05:58:11;;;;;;;;;;;7.50;99.90;;;;;;5095226;28;19907;-68
2021/12/27 06:00:37;;;;;;;;;;;7.60;99.90;;;;;;5095256;28;20377;-69
2021/12/27 06:03:03;;;;;;;;;;;7.60;99.90;;;;;;5096391;28;21248;-70
2021/12/27 06:05:29;;;;;;;;;;;7.60;99.90;;;;;;5094088;28;19908;-70
2021/12/27 06:07:55;;;;;;;;;;;7.60;99.90;;;;;;5098232;28;19951;-69
2021/12/27 06:10:21;;;;;;;;;;;7.60;99.90;;;;;;5084757;28;19951;-69
2021/12/27 06:12:46;;;;;;;;;;;7.60;99.90;;;;;;5081114;28;20007;-69
2021/12/27 06:15:12;;;;;;;;;;;7.60;99.90;;;;;;5092130;28;19904;-69
2021/12/27 06:17:39;;;;;;;;;;;7.60;99.90;;;;;;5093332;28;19908;-70
2021/12/27 06:20:06;;;;;;;;;;;7.60;99.90;;;;;;5080782;28;19928;-70
2021/12/27 06:22:32;;;;;;;;;;;7.60;99.90;;;;;;5077016;28;19912;-69
2021/12/27 06:25:03;;;;;;;;;;;7.60;99.90;;;;;;5101966;28;19916;-70
2021/12/27 06:27:29;;;;;;;;;;;7.60;99.90;;;;;;5086686;28;19915;-68
2021/12/27 06:29:55;;;;;;;;;;;7.60;99.90;;;;;;5095773;28;19915;-69
2021/12/27 06:32:20;;;;;;;;;;;7.60;99.90;;;;;;5093903;28;19920;-70
2021/12/27 06:34:46;;;;;;;;;;;7.60;99.90;;;;;;5094426;28;19916;-70
2021/12/27 06:37:11;;;;;;;;;;;7.60;99.90;;;;;;5101119;28;19908;-69
2021/12/27 06:39:37;;;;;;;;;;;7.60;99.90;;;;;;5083513;28;19915;-69
2021/12/27 06:42:04;;;;;;;;;;;7.60;99.90;;;;;;5091953;28;19967;-69
2021/12/27 06:44:30;;;;;;;;;;;7.60;99.90;;;;;;5092686;28;19907;-71
2021/12/27 06:46:59;;;;;;;;;;;7.60;99.90;;;;;;5094676;28;19976;-70
2021/12/27 06:49:26;;;;;;;;;;;7.50;99.90;;;;;;5097563;28;19919;-69
2021/12/27 06:51:51;;;;;;;;;;;7.50;99.90;;;;;;5100639;28;20030;-69
2021/12/27 06:54:17;;;;;;;;;;;7.60;99.90;;;;;;5093721;28;20081;-70
2021/12/27 06:56:43;;;;;;;;;;;7.60;99.90;;;;;;5090843;28;19912;-70
2021/12/27 06:59:08;;;;;;;;;;;7.60;99.90;;;;;;5104360;28;19908;-70
2021/12/27 07:01:34;;;;;;;;;;;7.60;99.90;;;;;;5100718;28;19950;-70
2021/12/27 07:03:59;;;;;;;;;;;7.60;99.90;;;;;;5090826;28;20022;-70
2021/12/27 07:06:25;;;;;;;;;;;7.60;99.90;;;;;;5091165;28;19966;-69
2021/12/27 07:08:50;;;;;;;;;;;7.60;99.90;;;;;;5098733;28;19915;-69
2021/12/27 07:11:16;;;;;;;;;;;7.60;99.90;;;;;;5098092;28;19912;-71
2021/12/27 07:13:41;;;;;;;;;;;7.60;99.90;;;;;;5097484;28;20264;-69
2021/12/27 07:16:07;;;;;;;;;;;7.60;99.90;;;;;;5094914;28;19984;-70
2021/12/27 07:18:32;;;;;;;;;;;7.60;99.90;;;;;;5102610;28;20001;-69
2021/12/27 07:20:58;;;;;;;;;;;7.60;99.90;;;;;;5098991;28;19920;-69
2021/12/27 07:23:24;;;;;;;;;;;7.60;99.90;;;;;;5107370;28;19999;-70
2021/12/27 07:25:49;;;;;;;;;;;7.60;99.90;;;;;;5084345;28;19955;-69
2021/12/27 07:28:15;;;;;;;;;;;7.60;99.90;;;;;;5106610;28;19915;-69
2021/12/27 07:30:41;;;;;;;;;;;7.60;99.90;;;;;;5095394;28;19916;-69
2021/12/27 07:33:07;;;;;;;;;;;7.70;99.90;;;;;;5090605;28;20018;-70
2021/12/27 07:35:32;;;;;;;;;;;7.70;99.90;;;;;;5084486;28;19919;-70
2021/12/27 07:38:00;;;;;;;;;;;7.70;99.90;;;;;;5091628;28;20037;-70
2021/12/27 07:40:26;;;;;;;;;;;7.70;99.90;;;;;;5091410;28;19904;-70
2021/12/27 07:42:51;;;;;;;;;;;7.80;99.90;;;;;;5091379;28;19904;-70
2021/12/27 07:45:17;;;;;;;;;;;7.70;99.90;;;;;;5081355;28;19916;-71
2021/12/27 07:47:42;;;;;;;;;;;7.70;99.90;;;;;;5071106;28;19909;-70
2021/12/27 07:50:08;;;;;;;;;;;7.80;99.90;;;;;;5087087;28;19947;-70
2021/12/27 07:52:34;;;;;;;;;;;7.80;99.90;;;;;;5089288;28;19911;-70
2021/12/27 07:54:59;;;;;;;;;;;7.90;99.90;;;;;;5091483;28;19908;-70
2021/12/27 07:57:25;;;;;;;;;;;7.90;99.90;;;;;;5090035;28;20007;-69
2021/12/27 07:59:50;;;;;;;;;;;8.00;99.90;;;;;;5091089;28;19908;-70
2021/12/27 08:02:17;;;;;;;;;;;8.10;99.90;;;;;;5089615;28;19915;-71
2021/12/27 08:04:43;;;;;;;;;;;8.10;99.90;;;;;;5089190;28;19923;-69
2021/12/27 08:07:09;;;;;;;;;;;8.10;99.90;;;;;;5092223;28;19915;-70
2021/12/27 08:09:35;;;;;;;;;;;8.20;99.90;;;;;;5082546;28;20286;-70
2021/12/27 08:12:00;;;;;;;;;;;8.20;99.90;;;;;;5071450;28;20018;-70
2021/12/27 08:14:26;;;;;;;;;;;8.30;99.90;;;;;;5070667;28;19904;-71
2021/12/27 08:16:51;;;;;;;;;;;8.30;99.90;;;;;;5083524;28;19915;-70
2021/12/27 08:19:17;;;;;;;;;;;8.30;99.90;;;;;;5086433;28;19908;-71
2021/12/27 08:21:43;;;;;;;;;;;8.30;99.90;;;;;;5085968;28;19912;-70
2021/12/27 08:24:09;;;;;;;;;;;8.40;99.90;;;;;;5078114;28;20019;-70
2021/12/27 08:26:35;;;;;;;;;;;8.40;99.90;;;;;;5072728;28;19915;-71
2021/12/27 08:29:02;;;;;;;;;;;8.50;99.90;;;;;;5089904;28;20264;-71
2021/12/27 08:31:28;;;;;;;;;;;8.50;99.90;;;;;;5096292;28;19908;-71
2021/12/27 08:33:54;;;;;;;;;;;8.50;99.90;;;;;;5091569;28;19904;-70
2021/12/27 08:36:19;;;;;;;;;;;8.60;99.90;;;;;;5091201;28;19962;-70
2021/12/27 08:38:47;;;;;;;;;;;8.70;99.90;;;;;;5095450;28;19912;-70
2021/12/27 08:41:13;;;;;;;;;;;8.80;99.90;;;;;;5094166;28;20306;-71
2021/12/27 08:43:38;;;;;;;;;;;9.00;99.90;;;;;;5101442;28;19922;-72
2021/12/27 08:46:04;;;;;;;;;;;9.00;99.90;;;;;;5093913;28;19907;-70
2021/12/27 08:48:30;;;;;;;;;;;9.10;99.90;;;;;;5093341;28;19904;-69
2021/12/27 08:50:55;;;;;;;;;;;9.20;99.90;;;;;;5097608;28;19915;-72
2021/12/27 08:53:21;;;;;;;;;;;9.30;99.90;;;;;;5099681;28;19916;-70
2021/12/27 08:55:47;;;;;;;;;;;9.30;99.90;;;;;;5113402;28;20316;-70
2021/12/27 08:58:12;;;;;;;;;;;9.40;99.90;;;;;;5104293;28;19912;-70
2021/12/27 09:00:38;;;;;;;;;;;9.50;99.90;;;;;;5090390;28;19912;-70
2021/12/27 09:03:03;;;;;;;;;;;9.50;99.90;;;;;;5076595;28;19916;-69
2021/12/27 09:05:29;;;;;;;;;;;9.50;99.90;;;;;;5099060;28;19907;-70
2021/12/27 09:07:54;;;;;;;;;;;9.60;99.90;;;;;;5093225;28;19937;-71
2021/12/27 09:10:20;;;;;;;;;;;9.60;99.90;;;;;;5095904;28;19915;-71
2021/12/27 09:12:46;;;;;;;;;;;9.60;99.90;;;;;;5081457;28;19981;-70
2021/12/27 09:15:11;;;;;;;;;;;9.70;99.90;;;;;;5078365;28;19915;-70
2021/12/27 09:17:37;;;;;;;;;;;9.80;99.90;;;;;;5091738;28;19908;-70
2021/12/27 09:20:03;;;;;;;;;;;9.80;99.90;;;;;;5083948;28;20361;-71
2021/12/27 09:22:29;;;;;;;;;;;9.80;99.90;;;;;;5080081;28;19912;-70
2021/12/27 09:24:54;;;;;;;;;;;9.90;99.90;;;;;;5088345;28;19961;-70
2021/12/27 09:27:20;;;;;;;;;;;9.90;99.90;;;;;;5092540;28;20057;-70
2021/12/27 09:29:46;;;;;;;;;;;10.20;99.90;;;;;;5081840;28;19919;-70
2021/12/27 09:32:11;;;;;;;;;;;10.30;99.90;;;;;;5087786;28;20393;-70
2021/12/27 09:34:37;;;;;;;;;;;10.60;99.90;;;;;;5084998;28;19962;-71
2021/12/27 09:37:03;;;;;;;;;;;10.70;99.90;;;;;;5090895;28;20008;-70
2021/12/27 09:39:29;;;;;;;;;;;10.90;99.90;;;;;;5110203;28;20345;-70
2021/12/27 09:41:54;;;;;;;;;;;11.00;99.90;;;;;;5119326;28;20200;-70
2021/12/27 09:44:20;;;;;;;;;;;10.90;99.90;;;;;;5102300;28;19939;-70
2021/12/27 09:46:46;;;;;;;;;;;10.80;99.90;;;;;;5094168;28;19904;-71
2021/12/27 09:49:13;;;;;;;;;;;10.90;99.90;;;;;;5081040;28;20406;-71
2021/12/27 09:51:40;;;;;;;;;;;11.10;99.90;;;;;;5093623;28;19912;-66
2021/12/27 09:54:06;;;;;;;;;;;11.30;99.90;;;;;;5091244;28;19908;-68
2021/12/27 09:56:32;;;;;;;;;;;11.30;99.90;;;;;;5107611;28;19903;-68
2021/12/27 09:58:58;;;;;;;;;;;11.30;99.90;;;;;;5098786;28;19954;-65
2021/12/27 10:01:23;;;;;;;;;;;11.30;99.90;;;;;;5083059;28;20010;-67
2021/12/27 10:03:51;;;;;;;;;;;11.40;99.90;;;;;;5100314;28;19908;-67
2021/12/27 10:06:18;;;;;;;;;;;11.30;99.90;;;;;;5099204;28;20372;-67
2021/12/27 10:08:47;;;;;;;;;;;11.40;99.90;;;;;;5092704;28;20442;-67
2021/12/27 10:11:19;;;;;;;;;;;11.50;99.90;;;;;;5093432;28;19934;-67
2021/12/27 10:14:04;;;;;;;;;;;11.30;99.90;;;;;;5094265;28;19916;-65
2021/12/27 10:16:31;;;;;;;;;;;11.20;99.90;;;;;;5093923;28;19920;-67
2021/12/27 10:18:57;;;;;;;;;;;11.30;99.90;;;;;;5094259;28;19904;-67
2021/12/27 10:21:24;;;;;;;;;;;11.40;99.90;;;;;;5094202;28;20373;-65
2021/12/27 10:24:00;;;;;;;;;;;11.60;99.90;;;;;;5092209;28;19918;-67
2021/12/27 10:26:25;;;;;;;;;;;11.70;99.90;;;;;;5081124;28;20007;-66
2021/12/27 10:29:04;;;;;;;;;;;11.80;99.90;;;;;;5089203;28;19947;-66
2021/12/27 10:31:48;;;;;;;;;;;12.00;99.90;;;;;;5087839;28;19908;-67
2021/12/27 10:34:13;;;;;;;;;;;12.10;99.90;;;;;;5072186;28;19911;-66
2021/12/27 10:36:55;;;;;;;;;;;12.20;99.90;;;;;;5086816;28;20249;-65
2021/12/27 10:39:21;;;;;;;;;;;12.30;99.90;;;;;;5082539;28;19923;-67
2021/12/27 10:41:46;;;;;;;;;;;12.40;99.90;;;;;;5091860;28;20023;-67
2021/12/27 10:44:13;;;;;;;;;;;12.40;99.90;;;;;;5092271;28;19972;-67
2021/12/27 10:46:38;;;;;;;;;;;12.40;99.90;;;;;;5092183;28;20345;-66
2021/12/27 10:49:04;;;;;;;;;;;12.40;99.90;;;;;;5092026;28;19912;-67
2021/12/27 10:51:30;;;;;;;;;;;12.40;99.90;;;;;;5090796;28;20315;-67
2021/12/27 10:53:57;;;;;;;;;;;12.50;99.90;;;;;;5071841;28;19915;-67
2021/12/27 10:56:25;;;;;;;;;;;12.40;99.90;;;;;;5071792;28;19908;-67
2021/12/27 10:58:54;;;;;;;;;;;12.50;99.90;;;;;;5071779;28;19904;-67
2021/12/27 11:01:20;;;;;;;;;;;12.50;99.90;;;;;;5071698;28;19958;-65
2021/12/27 11:03:47;;;;;;;;;;;12.60;99.90;;;;;;5072470;28;20227;-66
2021/12/27 11:06:17;;;;;;;;;;;12.50;99.90;;;;;;5070922;28;20010;-66
2021/12/27 11:08:44;;;;;;;;;;;12.50;99.90;;;;;;5078124;28;19915;-68
2021/12/27 11:11:11;;;;;;;;;;;12.40;99.90;;;;;;5091922;28;19953;-67
2021/12/27 11:13:36;;;;;;;;;;;12.50;99.90;;;;;;5091660;28;19958;-66
2021/12/27 11:16:02;;;;;;;;;;;12.50;99.90;;;;;;5091474;28;19943;-67
2021/12/27 11:18:28;;;;;;;;;;;12.50;99.90;;;;;;5091814;28;20030;-68
2021/12/27 11:20:55;;;;;;;;;;;12.40;99.90;;;;;;5091768;28;19904;-70
2021/12/27 11:23:21;;;;;;;;;;;12.40;99.90;;;;;;5091942;28;19958;-67
2021/12/27 11:25:47;;;;;;;;;;;12.50;99.90;;;;;;5080753;28;19958;-65
2021/12/27 11:28:33;;;;;;;;;;;12.60;99.90;;;;;;5089132;28;19943;-66
2021/12/27 11:31:02;;;;;;;;;;;12.60;99.90;;;;;;5090490;28;20380;-65
2021/12/27 11:33:27;;;;;;;;;;;12.60;99.90;;;;;;5086537;28;19909;-67
2021/12/27 11:35:59;;;;;;;;;;;12.80;99.90;;;;;;5071169;28;20279;-65
2021/12/27 11:38:31;;;;;;;;;;;12.90;99.90;;;;;;5072115;28;19935;-67
2021/12/27 11:40:57;;;;;;;;;;;13.00;99.90;;;;;;5071630;28;19905;-67
2021/12/27 11:43:23;;;;;;;;;;;12.80;99.90;;;;;;5072579;28;19913;-66
2021/12/27 11:45:52;;;;;;;;;;;12.70;99.90;;;;;;5070849;28;19911;-66
2021/12/27 11:48:18;;;;;;;;;;;12.60;99.90;;;;;;5071056;28;19974;-67
2021/12/27 11:50:56;;;;;;;;;;;12.60;99.90;;;;;;5070906;28;19904;-66
2021/12/27 11:53:40;;;;;;;;;;;12.70;99.90;;;;;;5072503;28;19979;-65
2021/12/27 11:56:10;;;;;;;;;;;12.60;99.90;;;;;;5071208;28;19915;-66
2021/12/27 11:58:40;;;;;;;;;;;12.60;99.90;;;;;;5081430;28;19908;-66
2021/12/27 12:01:26;;;;;;;;;;;12.60;99.90;;;;;;5089983;28;20182;-68
2021/12/27 12:03:55;;;;;;;;;;;12.50;99.90;;;;;;5091282;28;19908;-67
2021/12/27 12:06:56;;;;;;;;;;;12.50;99.90;;;;;;5091590;28;19911;-67
2021/12/27 12:09:22;;;;;;;;;;;12.60;99.90;;;;;;5068707;28;19950;-67
2021/12/27 12:11:59;;;;;;;;;;;12.70;99.90;;;;;;5074359;28;19959;-67
2021/12/27 12:14:26;;;;;;;;;;;12.70;99.90;;;;;;5072288;28;19909;-68
2021/12/27 12:16:52;;;;;;;;;;;12.60;99.90;;;;;;5091103;28;19915;-67
2021/12/27 12:19:33;;;;;;;;;;;12.40;99.90;;;;;;5086689;28;19924;-67
2021/12/27 12:21:58;;;;;;;;;;;12.10;99.90;;;;;;5090845;28;20057;-67
2021/12/27 12:24:24;;;;;;;;;;;12.00;99.90;;;;;;5090813;28;20432;-67
2021/12/27 12:26:58;;;;;;;;;;;11.90;99.90;;;;;;5089148;28;19910;-65
2021/12/27 12:29:25;;;;;;;;;;;11.80;99.90;;;;;;5090970;28;19912;-67
2021/12/27 12:32:10;;;;;;;;;;;11.70;99.90;;;;;;5075493;28;19923;-67
2021/12/27 12:34:37;;;;;;;;;;;11.50;99.90;;;;;;5071233;28;20013;-66
2021/12/27 12:37:07;;;;;;;;;;;11.30;99.90;;;;;;5070780;28;19974;-67
2021/12/27 12:39:35;;;;;;;;;;;11.20;99.90;;;;;;5071083;28;19916;-67
2021/12/27 12:42:16;;;;;;;;;;;11.20;99.90;;;;;;5071342;28;20381;-66
2021/12/27 12:44:49;;;;;;;;;;;11.20;99.90;;;;;;5079680;28;19908;-66
2021/12/27 12:47:15;;;;;;;;;;;11.20;99.90;;;;;;5071385;28;19999;-66
2021/12/27 12:49:41;;;;;;;;;;;11.30;99.90;;;;;;5071740;28;20004;-67
2021/12/27 12:52:07;;;;;;;;;;;11.30;99.90;;;;;;5070546;28;19935;-67
2021/12/27 12:54:34;;;;;;;;;;;11.40;99.90;;;;;;5076674;28;19917;-67
2021/12/27 12:57:05;;;;;;;;;;;11.40;99.90;;;;;;5074080;28;19908;-67
2021/12/27 12:59:32;;;;;;;;;;;11.50;99.90;;;;;;5071316;28;19908;-66
2021/12/27 13:02:01;;;;;;;;;;;11.40;99.90;;;;;;5088013;28;19916;-66
2021/12/27 13:04:45;;;;;;;;;;;11.40;99.90;;;;;;5075105;28;19962;-67
2021/12/27 13:07:12;;;;;;;;;;;11.40;99.90;;;;;;5072441;28;19912;-66
2021/12/27 13:09:43;;;;;;;;;;;11.40;99.90;;;;;;5074387;28;19995;-67
2021/12/27 13:12:09;;;;;;;;;;;11.40;99.90;;;;;;5086352;28;20350;-67
2021/12/27 13:14:35;;;;;;;;;;;11.40;99.90;;;;;;5069902;28;19909;-67
2021/12/27 13:17:14;;;;;;;;;;;11.50;99.90;;;;;;5071402;28;19914;-67
2021/12/27 13:19:59;;;;;;;;;;;11.50;99.90;;;;;;5078298;28;19919;-67
2021/12/27 13:22:38;;;;;;;;;;;11.60;99.90;;;;;;5090211;28;19970;-67
2021/12/27 13:25:03;;;;;;;;;;;11.70;99.90;;;;;;5109476;28;19947;-67
2021/12/27 13:27:30;;;;;;;;;;;11.70;99.90;;;;;;5100496;28;19950;-65
2021/12/27 13:30:15;;;;;;;;;;;11.80;99.90;;;;;;5092686;28;19911;-68
2021/12/27 13:32:42;;;;;;;;;;;11.90;99.90;;;;;;5081251;28;19961;-65
2021/12/27 13:35:10;;;;;;;;;;;11.80;99.90;;;;;;5092981;28;19919;-67
2021/12/27 13:37:36;;;;;;;;;;;11.60;99.90;;;;;;5093525;28;20311;-67
2021/12/27 13:40:09;;;;;;;;;;;11.60;99.90;;;;;;5092315;28;19908;-66
2021/12/27 13:42:35;;;;;;;;;;;11.50;99.90;;;;;;5093640;28;20326;-66
2021/12/27 13:45:11;;;;;;;;;;;11.50;99.90;;;;;;5089455;28;19961;-65
2021/12/27 13:47:37;;;;;;;;;;;11.30;99.90;;;;;;5105545;28;19904;-66
2021/12/27 13:50:03;;;;;;;;;;;11.30;99.90;;;;;;5113128;28;20326;-66
2021/12/27 13:52:41;;;;;;;;;;;11.40;99.90;;;;;;5082117;28;20265;-68
2021/12/27 13:55:07;;;;;;;;;;;11.40;99.90;;;;;;5092123;28;19983;-68
2021/12/27 13:57:34;;;;;;;;;;;11.40;99.90;;;;;;5093647;28;19963;-67
2021/12/27 14:00:01;;;;;;;;;;;11.30;99.90;;;;;;5086370;28;19912;-68
2021/12/27 14:02:44;;;;;;;;;;;11.20;99.90;;;;;;5089221;28;19908;-69
2021/12/27 14:05:10;;;;;;;;;;;11.20;99.90;;;;;;5096304;28;20332;-68
2021/12/27 14:07:36;;;;;;;;;;;11.10;99.90;;;;;;5095938;28;20281;-66
2021/12/27 14:10:02;;;;;;;;;;;11.10;99.90;;;;;;5099145;28;19904;-67
2021/12/27 14:12:31;;;;;;;;;;;11.00;99.90;;;;;;5091006;28;19926;-68
2021/12/27 14:15:03;;;;;;;;;;;11.00;99.90;;;;;;5099052;28;20396;-69
2021/12/27 14:17:30;;;;;;;;;;;10.90;99.90;;;;;;5099521;28;19908;-68
2021/12/27 14:20:07;;;;;;;;;;;10.80;99.90;;;;;;5093470;28;19915;-66
2021/12/27 14:22:54;;;;;;;;;;;10.80;99.90;;;;;;5104662;28;20343;-65
2021/12/27 14:25:21;;;;;;;;;;;10.80;99.90;;;;;;5118023;27;19911;-66
2021/12/27 14:27:47;;;;;;;;;;;10.80;99.90;;;;;;5094920;28;20111;-67
2021/12/27 14:30:17;;;;;;;;;;;10.90;99.90;;;;;;5098808;28;19955;-67
2021/12/27 14:33:03;;;;;;;;;;;10.90;99.90;;;;;;5096174;28;19919;-67